Time;durP1;ratioP1;P1;durP2;ratioP2;P2;SDS_P1;SDS_P2;PMS_P1;PMS_P2;Temp;Humidity;BMP_temperature;BMP_pressure;BME280_temperature;BME280_humidity;BME280_pressure;Samples;Min_cycle;Max_cycle;Signal;HPM_P1;HPM_P2
2022/04/06 00:01:36;;;;;;;6.82;4.43;;;8.70;99.90;;;;;;5217609;28;20055;-75
2022/04/06 00:04:08;;;;;;;8.05;4.03;;;8.70;99.90;;;;;;5247041;28;25458;-76
2022/04/06 00:06:41;;;;;;;5.85;3.95;;;8.70;99.90;;;;;;5249303;28;20048;-74
2022/04/06 00:09:22;;;;;;;7.40;4.45;;;8.70;99.90;;;;;;5242652;28;20052;-75
2022/04/06 00:11:55;;;;;;;7.70;4.90;;;8.70;99.90;;;;;;5248858;28;20047;-75
2022/04/06 00:14:27;;;;;;;6.88;3.85;;;8.70;99.90;;;;;;5244812;28;20044;-76
2022/04/06 00:17:04;;;;;;;6.95;4.53;;;8.60;99.90;;;;;;5241119;28;20740;-75
2022/04/06 00:19:36;;;;;;;8.68;5.25;;;8.60;99.90;;;;;;5228747;28;20047;-76
2022/04/06 00:22:09;;;;;;;8.90;5.03;;;8.70;99.90;;;;;;5250829;28;20404;-76
2022/04/06 00:24:41;;;;;;;10.52;4.63;;;8.60;99.90;;;;;;5225842;28;20973;-75
2022/04/06 00:27:14;;;;;;;6.15;4.53;;;8.60;99.90;;;;;;5225805;28;20059;-74
2022/04/06 00:29:47;;;;;;;8.68;5.40;;;8.60;99.90;;;;;;5249038;28;20062;-73
2022/04/06 00:32:20;;;;;;;8.23;4.78;;;8.60;99.90;;;;;;5240591;28;20506;-75
2022/04/06 00:37:43;;;;;;;5.85;4.40;;;8.50;99.90;;;;;;5248209;28;20052;-75
2022/04/06 00:40:16;;;;;;;6.78;4.60;;;8.50;99.90;;;;;;5229856;28;20048;-72
2022/04/06 00:42:49;;;;;;;7.07;5.00;;;8.60;99.90;;;;;;5232767;28;20055;-74
2022/04/06 00:45:23;;;;;;;7.30;4.70;;;8.60;99.90;;;;;;5250970;28;20062;-74
2022/04/06 00:47:56;;;;;;;5.97;4.38;;;8.60;99.90;;;;;;5229638;28;20056;-75
2022/04/06 00:50:28;;;;;;;6.68;4.85;;;8.60;99.90;;;;;;5246216;28;20982;-74
2022/04/06 00:53:01;;;;;;;6.40;4.68;;;8.60;99.90;;;;;;5237816;28;20048;-74
2022/04/06 00:55:39;;;;;;;12.65;5.20;;;8.60;99.90;;;;;;5251588;28;20043;-75
2022/04/06 00:58:11;;;;;;;8.63;5.20;;;8.60;99.90;;;;;;5226648;28;20055;-75
2022/04/06 01:00:44;;;;;;;7.22;5.07;;;8.60;99.90;;;;;;5251789;28;20056;-75
2022/04/06 01:03:16;;;;;;;8.52;5.18;;;8.60;99.90;;;;;;5230287;28;20337;-74
2022/04/06 01:05:49;;;;;;;7.75;5.40;;;8.60;99.90;;;;;;5248826;28;20039;-74
2022/04/06 01:08:22;;;;;;;9.20;4.78;;;8.60;99.90;;;;;;5245254;28;20056;-74
2022/04/06 01:10:55;;;;;;;6.30;4.80;;;8.60;99.90;;;;;;5247055;28;20055;-75
2022/04/06 01:13:28;;;;;;;8.23;4.50;;;8.50;99.90;;;;;;5233138;28;20904;-74
2022/04/06 01:16:01;;;;;;;7.82;5.13;;;8.50;99.90;;;;;;5245947;28;20047;-74
2022/04/06 01:18:33;;;;;;;7.15;5.18;;;8.50;99.90;;;;;;5245480;28;20422;-74
2022/04/06 01:21:06;;;;;;;7.10;4.68;;;8.50;99.90;;;;;;5239396;28;20483;-75
2022/04/06 01:23:41;;;;;;;7.43;4.40;;;8.50;99.90;;;;;;5247038;28;20048;-75
2022/04/06 01:26:14;;;;;;;10.80;4.70;;;8.60;99.90;;;;;;5249385;28;20411;-75
2022/04/06 01:28:46;;;;;;;8.57;4.35;;;8.60;99.90;;;;;;5249642;28;20043;-75
2022/04/06 01:31:19;;;;;;;5.38;3.97;;;8.50;99.90;;;;;;5247543;28;20047;-74
2022/04/06 01:33:51;;;;;;;6.68;4.45;;;8.60;99.90;;;;;;5228239;28;20052;-75
2022/04/06 01:36:23;;;;;;;6.35;4.25;;;8.60;99.90;;;;;;5248489;28;20672;-76
2022/04/06 01:38:56;;;;;;;6.28;4.15;;;8.60;99.90;;;;;;5247775;28;20055;-76
2022/04/06 01:41:32;;;;;;;6.47;4.40;;;8.60;99.90;;;;;;5229383;28;20059;-75
2022/04/06 01:44:06;;;;;;;6.47;4.07;;;8.70;99.90;;;;;;5247463;28;20047;-75
2022/04/06 01:46:38;;;;;;;6.03;3.90;;;8.70;99.90;;;;;;5242050;28;20058;-75
2022/04/06 01:52:13;;;;;;;13.30;7.88;;;8.80;99.90;;;;;;5236546;28;20063;-75
2022/04/06 01:54:54;;;;;;;7.85;5.00;;;8.80;99.90;;;;;;5250851;28;20079;-75
2022/04/06 01:57:28;;;;;;;5.32;3.83;;;8.80;99.90;;;;;;5249615;28;20052;-75
2022/04/06 02:00:01;;;;;;;6.15;4.35;;;8.80;99.90;;;;;;5245325;28;20047;-74
2022/04/06 02:02:35;;;;;;;5.65;3.53;;;8.80;99.90;;;;;;5216699;28;20129;-75
2022/04/06 02:05:08;;;;;;;8.57;3.90;;;8.80;99.90;;;;;;5246771;28;20048;-75
2022/04/06 02:07:42;;;;;;;5.00;3.63;;;8.80;99.90;;;;;;5232065;28;25883;-75
2022/04/06 02:10:17;;;;;;;5.32;3.75;;;8.80;99.90;;;;;;5249912;28;20086;-75
2022/04/06 02:12:50;;;;;;;5.13;3.63;;;8.80;99.90;;;;;;5232955;28;20545;-75
2022/04/06 02:15:24;;;;;;;4.45;3.15;;;8.80;99.90;;;;;;5249851;28;20157;-75
2022/04/06 02:17:56;;;;;;;;;;;8.90;99.90;;;;;;5247902;28;20052;-73
2022/04/06 02:20:29;;;;;;;6.72;3.65;;;8.90;99.90;;;;;;5249329;28;20523;-73
2022/04/06 02:23:02;;;;;;;6.22;3.75;;;8.90;99.90;;;;;;5243319;28;20056;-75
2022/04/06 02:25:34;;;;;;;4.63;3.47;;;8.90;99.90;;;;;;5229781;28;20060;-74
2022/04/06 02:28:06;;;;;;;6.28;3.45;;;8.90;99.90;;;;;;5235617;28;20789;-75
2022/04/06 02:30:39;;;;;;;6.55;4.15;;;8.90;99.90;;;;;;5249133;28;21114;-73
2022/04/06 02:33:11;;;;;;;5.60;3.60;;;8.90;99.90;;;;;;5226833;28;20509;-75
2022/04/06 02:35:44;;;;;;;6.85;3.88;;;8.90;99.90;;;;;;5249080;28;20059;-75
2022/04/06 02:38:16;;;;;;;4.07;3.25;;;8.90;99.90;;;;;;5249210;28;20096;-75
2022/04/06 02:40:48;;;;;;;4.90;3.67;;;8.90;99.90;;;;;;5245846;28;20032;-74
2022/04/06 02:43:21;;;;;;;6.68;3.60;;;9.00;99.90;;;;;;5248856;28;20111;-75
2022/04/06 02:45:54;;;;;;;5.18;3.47;;;9.00;99.90;;;;;;5251149;28;20048;-75
2022/04/06 02:48:26;;;;;;;4.90;2.92;;;9.00;99.90;;;;;;5231795;28;20055;-74
2022/04/06 02:50:59;;;;;;;7.00;3.65;;;8.90;99.90;;;;;;5225433;28;20044;-75
2022/04/06 02:53:31;;;;;;;6.40;3.33;;;9.00;99.90;;;;;;5247200;28;20052;-74
2022/04/06 02:56:04;;;;;;;5.40;3.47;;;8.90;99.90;;;;;;5250481;28;20044;-75
2022/04/06 02:58:37;;;;;;;4.90;3.80;;;8.80;99.90;;;;;;5247283;28;20055;-75
2022/04/06 03:01:09;;;;;;;4.78;3.40;;;8.80;99.90;;;;;;5245316;28;20040;-75
2022/04/06 03:03:46;;;;;;;6.93;3.58;;;8.80;99.90;;;;;;5249209;28;20044;-75
2022/04/06 03:06:19;;;;;;;7.82;3.83;;;8.80;99.90;;;;;;5241999;28;20054;-75
2022/04/06 03:08:51;;;;;;;4.30;3.30;;;8.80;99.90;;;;;;5247767;28;20052;-75
2022/04/06 03:11:24;;;;;;;5.32;3.67;;;8.70;99.90;;;;;;5246047;28;20043;-74
2022/04/06 03:13:56;;;;;;;6.30;3.45;;;8.70;99.90;;;;;;5239636;28;20403;-74
2022/04/06 03:16:29;;;;;;;6.70;3.22;;;8.60;99.90;;;;;;5244584;28;20052;-75
2022/04/06 03:19:01;;;;;;;4.85;3.38;;;8.60;99.90;;;;;;5249066;28;20032;-73
2022/04/06 03:21:34;;;;;;;5.60;2.97;;;8.60;99.90;;;;;;5230527;28;20546;-74
2022/04/06 03:24:07;;;;;;;3.70;2.55;;;8.60;99.90;;;;;;5247144;28;20036;-75
2022/04/06 03:26:39;;;;;;;4.15;3.28;;;8.60;99.90;;;;;;5236254;28;20056;-73
2022/04/06 03:29:12;;;;;;;4.35;2.40;;;8.60;99.90;;;;;;5244583;28;20048;-75
2022/04/06 03:31:44;;;;;;;4.03;2.70;;;8.60;99.90;;;;;;5248827;28;20052;-75
2022/04/06 03:34:16;;;;;;;3.13;2.42;;;8.60;99.90;;;;;;5243713;28;20051;-74
2022/04/06 03:36:49;;;;;;;6.43;2.80;;;8.50;99.90;;;;;;5243413;28;20051;-74
2022/04/06 03:39:21;;;;;;;6.90;2.85;;;8.50;99.90;;;;;;5236727;28;21147;-74
2022/04/06 03:41:54;;;;;;;4.78;2.75;;;8.40;99.90;;;;;;5247137;28;20514;-75
2022/04/06 03:44:26;;;;;;;9.88;2.70;;;8.40;99.90;;;;;;5240692;28;20307;-75
2022/04/06 03:46:58;;;;;;;5.57;4.18;;;8.40;99.90;;;;;;5245046;28;20056;-74
2022/04/06 03:49:31;;;;;;;5.53;2.70;;;8.20;99.90;;;;;;5227726;28;20048;-74
2022/04/06 03:52:04;;;;;;;3.85;2.67;;;8.20;99.90;;;;;;5226820;28;20040;-73
2022/04/06 03:54:36;;;;;;;4.57;3.25;;;8.10;99.90;;;;;;5234745;28;20052;-73
2022/04/06 03:57:09;;;;;;;5.25;2.85;;;8.00;99.90;;;;;;5209208;28;20059;-73
2022/04/06 03:59:41;;;;;;;3.25;2.75;;;7.90;99.90;;;;;;5245199;28;20055;-75
2022/04/06 04:02:14;;;;;;;3.50;2.67;;;7.80;99.90;;;;;;5231993;28;20044;-75
2022/04/06 04:04:46;;;;;;;4.25;3.35;;;7.80;99.90;;;;;;5235576;28;20052;-75
2022/04/06 04:07:20;;;;;;;4.30;2.70;;;7.60;99.90;;;;;;5232121;28;21337;-74
2022/04/06 04:09:53;;;;;;;5.75;2.80;;;7.60;99.90;;;;;;5242631;28;20052;-75
2022/04/06 04:12:25;;;;;;;3.00;2.13;;;7.60;99.90;;;;;;5240370;28;20473;-74
2022/04/06 04:14:57;;;;;;;3.17;2.38;;;7.60;99.90;;;;;;5237418;28;20048;-76
2022/04/06 04:17:30;;;;;;;7.10;3.15;;;7.60;99.90;;;;;;5240394;28;20044;-75
2022/04/06 04:20:03;;;;;;;3.15;2.72;;;7.50;99.90;;;;;;5232115;28;20056;-74
2022/04/06 04:22:35;;;;;;;3.72;2.83;;;7.40;99.90;;;;;;5227928;28;20040;-75
2022/04/06 04:25:10;;;;;;;3.10;2.60;;;7.40;99.90;;;;;;5213239;28;20068;-75
2022/04/06 04:27:42;;;;;;;3.92;2.75;;;7.40;99.90;;;;;;5227567;28;20048;-75
2022/04/06 04:30:15;;;;;;;3.60;2.63;;;7.40;99.90;;;;;;5235011;28;20533;-73
2022/04/06 04:32:47;;;;;;;3.83;2.65;;;7.40;99.90;;;;;;5236327;28;20973;-73
2022/04/06 04:35:20;;;;;;;3.45;2.50;;;7.50;99.90;;;;;;5225664;28;20059;-74
2022/04/06 04:37:52;;;;;;;4.18;2.78;;;7.60;99.90;;;;;;5232394;28;20052;-73
2022/04/06 04:40:25;;;;;;;4.65;2.45;;;7.60;99.90;;;;;;5234573;28;20051;-74
2022/04/06 04:42:59;;;;;;;4.25;2.58;;;7.60;99.90;;;;;;5232153;28;20032;-73
2022/04/06 04:45:35;;;;;;;2.67;2.22;;;7.70;99.90;;;;;;5223955;28;20035;-74
2022/04/06 04:48:08;;;;;;;3.58;2.50;;;7.70;99.90;;;;;;5231488;28;20044;-74
2022/04/06 04:50:41;;;;;;;3.00;2.67;;;7.70;99.90;;;;;;5235453;28;20560;-73
2022/04/06 04:53:13;;;;;;;2.95;2.40;;;7.60;99.90;;;;;;5247936;28;20056;-74
2022/04/06 04:55:46;;;;;;;4.60;2.30;;;7.60;99.90;;;;;;5235933;28;20636;-74
2022/04/06 04:58:18;;;;;;;4.87;2.50;;;7.60;99.90;;;;;;5225917;28;20048;-74
2022/04/06 05:00:51;;;;;;;2.53;2.25;;;7.60;99.90;;;;;;5228568;28;20649;-72
2022/04/06 05:03:23;;;;;;;8.27;2.60;;;7.60;99.90;;;;;;5212074;28;20040;-73
2022/04/06 05:05:57;;;;;;;4.33;2.43;;;7.60;99.90;;;;;;5214421;28;20331;-74
2022/04/06 05:08:30;;;;;;;3.58;2.50;;;7.60;99.90;;;;;;5194854;28;20299;-73
2022/04/06 05:11:02;;;;;;;6.28;2.33;;;7.70;99.90;;;;;;5205059;28;20963;-74
2022/04/06 05:13:36;;;;;;;4.38;2.40;;;7.70;99.90;;;;;;5229377;28;20067;-76
2022/04/06 05:16:09;;;;;;;4.82;2.22;;;7.90;99.90;;;;;;5202331;28;20051;-73
2022/04/06 05:18:41;;;;;;;3.47;2.55;;;8.00;99.90;;;;;;5229109;28;20062;-73
2022/04/06 05:21:14;;;;;;;5.53;2.40;;;8.00;99.90;;;;;;5242937;28;20044;-74
2022/04/06 05:23:46;;;;;;;4.82;2.38;;;7.90;99.90;;;;;;5240191;28;20065;-73
2022/04/06 05:26:19;;;;;;;6.32;3.10;;;7.90;99.90;;;;;;5232191;28;20044;-73
2022/04/06 05:28:51;;;;;;;4.30;2.00;;;7.90;99.90;;;;;;5222280;28;20040;-74
2022/04/06 05:31:24;;;;;;;5.53;2.05;;;7.90;99.90;;;;;;5233505;28;20067;-74
2022/04/06 05:33:57;;;;;;;8.43;2.67;;;8.10;99.90;;;;;;5236053;28;20048;-75
2022/04/06 05:36:29;;;;;;;4.60;2.55;;;8.10;99.90;;;;;;5214429;28;21369;-75
2022/04/06 05:39:02;;;;;;;9.05;4.15;;;8.20;99.90;;;;;;5205957;28;20044;-75
2022/04/06 05:41:35;;;;;;;7.93;4.70;;;8.20;99.90;;;;;;5238812;28;20044;-74
2022/04/06 05:44:08;;;;;;;27.75;13.55;;;8.20;99.90;;;;;;5245418;28;20067;-74
2022/04/06 05:46:40;;;;;;;23.27;10.32;;;8.30;99.90;;;;;;5217397;28;20052;-74
2022/04/06 05:49:12;;;;;;;12.45;6.80;;;8.30;99.90;;;;;;5250673;28;20051;-75
2022/04/06 05:51:45;;;;;;;10.65;5.38;;;8.40;99.90;;;;;;5256226;28;20071;-75
2022/04/06 05:54:17;;;;;;;11.75;5.22;;;8.50;99.90;;;;;;5249018;28;20055;-74
2022/04/06 05:56:50;;;;;;;6.28;4.35;;;8.70;99.90;;;;;;5251991;28;20040;-75
2022/04/06 05:59:22;;;;;;;6.72;3.50;;;8.80;99.90;;;;;;5212052;28;20044;-74
2022/04/06 06:01:55;;;;;;;5.80;2.75;;;8.90;99.90;;;;;;5249039;28;20047;-75
2022/04/06 06:04:27;;;;;;;4.60;3.42;;;9.00;99.90;;;;;;5252545;28;20060;-74
2022/04/06 06:07:00;;;;;;;6.47;3.00;;;9.00;99.90;;;;;;5253880;28;20052;-75
2022/04/06 06:09:34;;;;;;;5.80;2.60;;;9.10;99.90;;;;;;5232745;28;20575;-75
2022/04/06 06:12:06;;;;;;;4.00;1.77;;;9.20;99.90;;;;;;5254398;28;20052;-75
2022/04/06 06:14:39;;;;;;;4.20;1.98;;;9.30;99.90;;;;;;5221850;28;22500;-75
2022/04/06 06:17:11;;;;;;;2.50;2.00;;;9.40;99.90;;;;;;5246638;28;20044;-74
2022/04/06 06:19:44;;;;;;;2.67;2.15;;;9.50;99.90;;;;;;5255317;28;20052;-76
2022/04/06 06:22:17;;;;;;;4.63;1.88;;;9.60;99.90;;;;;;5249283;28;20048;-75
2022/04/06 06:24:49;;;;;;;2.55;2.17;;;9.70;99.90;;;;;;5254124;28;20048;-75
2022/04/06 06:27:23;;;;;;;3.20;2.30;;;9.80;99.90;;;;;;5251070;28;20047;-75
2022/04/06 06:29:55;;;;;;;4.18;2.25;;;9.90;99.90;;;;;;5253748;28;20491;-73
2022/04/06 06:32:28;;;;;;;3.00;2.55;;;9.90;99.90;;;;;;5246327;28;20052;-73
2022/04/06 06:35:00;;;;;;;3.22;2.63;;;10.00;99.90;;;;;;5236865;28;20048;-73
2022/04/06 06:37:33;;;;;;;4.30;2.67;;;10.10;99.90;;;;;;5251902;28;20061;-73
2022/04/06 06:40:06;;;;;;;3.33;2.20;;;10.20;99.90;;;;;;5255592;28;20655;-74
2022/04/06 06:42:38;;;;;;;3.63;1.70;;;10.30;99.90;;;;;;5247769;28;20044;-74
2022/04/06 06:45:11;;;;;;;2.67;1.90;;;10.40;99.90;;;;;;5252191;28;20040;-75
2022/04/06 06:47:45;;;;;;;2.58;1.60;;;10.50;99.90;;;;;;5250038;28;20056;-73
2022/04/06 06:50:18;;;;;;;2.88;1.88;;;10.60;99.90;;;;;;5256299;28;20059;-75
2022/04/06 06:52:50;;;;;;;4.22;1.85;;;10.70;99.90;;;;;;5252031;28;20044;-74
2022/04/06 06:55:23;;;;;;;2.83;1.85;;;10.70;99.90;;;;;;5255960;28;20060;-75
2022/04/06 06:57:55;;;;;;;5.15;2.22;;;10.90;99.90;;;;;;5232570;28;20059;-74
2022/04/06 07:00:27;;;;;;;5.18;2.33;;;11.00;99.90;;;;;;5252652;28;20040;-74
2022/04/06 07:03:00;;;;;;;2.72;2.10;;;11.10;99.90;;;;;;5232919;28;20071;-75
2022/04/06 07:05:32;;;;;;;2.55;1.88;;;11.10;99.90;;;;;;5254123;28;20115;-75
2022/04/06 07:08:05;;;;;;;3.45;2.08;;;11.30;99.90;;;;;;5249464;28;20043;-73
2022/04/06 07:10:37;;;;;;;4.15;1.98;;;11.50;99.90;;;;;;5252962;28;20557;-74
2022/04/06 07:13:12;;;;;;;2.80;2.05;;;11.70;99.90;;;;;;5247918;28;20056;-74
2022/04/06 07:15:45;;;;;;;4.03;2.55;;;11.80;99.90;;;;;;5231658;28;20478;-74
2022/04/06 07:18:20;;;;;;;2.22;2.00;;;11.80;99.90;;;;;;5236347;28;20056;-74
2022/04/06 07:20:52;;;;;;;3.28;1.95;;;12.10;99.90;;;;;;5253317;28;20403;-75
2022/04/06 07:23:24;;;;;;;6.03;2.03;;;12.30;99.90;;;;;;5189621;28;20877;-76
2022/04/06 07:25:57;;;;;;;2.83;2.27;;;12.50;99.90;;;;;;5255220;28;20058;-75
2022/04/06 07:28:31;;;;;;;4.57;3.22;;;12.70;99.90;;;;;;5250622;28;20289;-74
2022/04/06 07:31:04;;;;;;;6.03;3.03;;;12.90;99.90;;;;;;5237789;28;20048;-75
2022/04/06 07:33:36;;;;;;;6.63;3.75;;;12.80;97.60;;;;;;5251635;28;20526;-74
2022/04/06 07:36:09;;;;;;;9.77;4.10;;;12.90;97.90;;;;;;5234483;28;20040;-74
2022/04/06 07:38:41;;;;;;;6.75;3.80;;;12.80;97.10;;;;;;5254679;28;20044;-74
2022/04/06 07:41:14;;;;;;;5.00;3.90;;;12.60;96.90;;;;;;5263093;28;20054;-74
2022/04/06 07:43:46;;;;;;;6.88;4.60;;;12.40;96.20;;;;;;5260480;28;20032;-74
2022/04/06 07:46:18;;;;;;;10.07;4.68;;;12.40;96.90;;;;;;5252275;28;21047;-75
2022/04/06 07:48:51;;;;;;;6.97;4.47;;;12.40;97.00;;;;;;5256008;28;20071;-74
2022/04/06 07:51:23;;;;;;;7.28;4.30;;;12.60;96.80;;;;;;5253486;28;20048;-74
2022/04/06 07:53:56;;;;;;;7.22;3.55;;;12.70;96.10;;;;;;5252109;28;20508;-75
2022/04/06 07:56:28;;;;;;;6.10;4.47;;;12.80;96.00;;;;;;5254877;28;20451;-75
2022/04/06 07:59:01;;;;;;;6.25;4.25;;;12.90;95.20;;;;;;5245882;28;20044;-74
2022/04/06 08:01:37;;;;;;;4.95;3.60;;;12.90;94.20;;;;;;5248023;28;20036;-74
2022/04/06 08:04:09;;;;;;;5.20;4.20;;;12.90;94.20;;;;;;5247090;28;20047;-74
2022/04/06 08:06:42;;;;;;;6.03;3.67;;;12.90;94.40;;;;;;5253256;28;20115;-75
2022/04/06 08:09:14;;;;;;;5.50;3.85;;;13.10;94.40;;;;;;5253275;28;20511;-76
2022/04/06 08:11:47;;;;;;;6.05;4.03;;;13.30;94.20;;;;;;5251513;28;20399;-73
2022/04/06 08:14:20;;;;;;;6.28;3.47;;;13.30;93.90;;;;;;5244121;28;20057;-74
2022/04/06 08:16:55;;;;;;;4.35;3.42;;;13.30;92.60;;;;;;5231946;28;20521;-74
2022/04/06 08:19:28;;;;;;;5.32;3.80;;;13.20;92.20;;;;;;5253905;28;20135;-73
2022/04/06 08:22:00;;;;;;;7.07;3.38;;;13.20;92.30;;;;;;4869799;28;10001311;-75
2022/04/06 08:24:38;;;;;;;5.25;3.50;;;13.10;92.00;;;;;;4894662;28;10001487;-76
2022/04/06 08:27:11;;;;;;;4.78;3.63;;;13.00;91.70;;;;;;5243041;28;20044;-74
2022/04/06 08:29:44;;;;;;;5.43;3.45;;;13.10;91.90;;;;;;5241125;28;20083;-74
2022/04/06 08:32:16;;;;;;;5.00;3.53;;;13.20;91.80;;;;;;5245060;28;20051;-75
2022/04/06 08:34:49;;;;;;;6.43;3.45;;;13.20;91.20;;;;;;5242859;28;20075;-76
2022/04/06 08:37:21;;;;;;;5.85;3.67;;;13.20;91.20;;;;;;5228428;28;20392;-77
2022/04/06 08:39:53;;;;;;;4.97;3.60;;;13.40;91.00;;;;;;5238896;28;20048;-75
2022/04/06 08:42:40;;;;;;;6.20;4.10;;;13.40;91.20;;;;;;5245892;28;20040;-75
2022/04/06 08:45:13;;;;;;;5.13;3.80;;;13.70;91.50;;;;;;5223228;28;20055;-74
2022/04/06 08:47:51;;;;;;;4.07;3.20;;;13.60;91.00;;;;;;5240915;28;20341;-76
2022/04/06 08:50:28;;;;;;;4.97;3.22;;;13.50;90.70;;;;;;5248457;28;20051;-74
2022/04/06 08:53:03;;;;;;;3.88;2.92;;;13.50;90.60;;;;;;5240752;28;20044;-75
2022/04/06 08:55:36;;;;;;;5.80;3.28;;;13.60;90.40;;;;;;5246277;28;20048;-76
2022/04/06 08:58:08;;;;;;;4.25;3.00;;;13.50;90.40;;;;;;5239101;28;20056;-76
2022/04/06 09:00:41;;;;;;;4.65;3.17;;;13.60;90.40;;;;;;5208131;28;20044;-75
2022/04/06 09:03:16;;;;;;;3.95;2.92;;;13.70;90.50;;;;;;5246149;28;20048;-75
2022/04/06 09:06:09;;;;;;;4.03;3.15;;;13.60;89.70;;;;;;5244829;28;20043;-76
2022/04/06 09:08:48;;;;;;;5.68;3.08;;;13.70;87.10;;;;;;5240689;28;20694;-75
2022/04/06 09:11:20;;;;;;;13.13;3.53;;;13.60;89.00;;;;;;5211110;28;20071;-74
2022/04/06 09:14:00;;;;;;;6.20;2.70;;;13.60;89.50;;;;;;5237519;28;20048;-75
2022/04/06 09:16:32;;;;;;;4.22;3.00;;;13.70;88.20;;;;;;5224413;28;20052;-76
2022/04/06 09:19:13;;;;;;;5.00;3.50;;;13.70;88.90;;;;;;5225530;28;20045;-75
2022/04/06 09:21:49;;;;;;;5.22;3.08;;;13.90;87.00;;;;;;5248358;28;20048;-76
2022/04/06 09:24:24;;;;;;;3.58;2.50;;;14.00;87.60;;;;;;5250750;28;20051;-74
2022/04/06 09:26:59;;;;;;;6.88;3.20;;;14.20;87.00;;;;;;5245963;28;20036;-76
2022/04/06 09:29:34;;;;;;;5.75;2.60;;;14.20;85.30;;;;;;5241093;28;20044;-76
2022/04/06 09:32:09;;;;;;;5.38;2.90;;;14.30;85.40;;;;;;5246813;28;20534;-75
2022/04/06 09:35:21;;;;;;;;;;;14.30;84.10;;;;;;5245535;28;20047;-76
2022/04/06 09:38:20;;;;;;;3.65;2.70;;;14.20;82.50;;;;;;5230453;28;19928;-76
2022/04/06 09:41:04;;;;;;;4.22;2.83;;;14.30;85.00;;;;;;5246238;28;20051;-76
2022/04/06 09:43:36;;;;;;;3.33;2.58;;;14.40;81.90;;;;;;5246729;28;20494;-74
2022/04/06 09:49:19;;;;;;;3.13;2.67;;;14.60;82.00;;;;;;5247715;28;20059;-76
2022/04/06 09:51:51;;;;;;;6.40;2.70;;;14.90;82.80;;;;;;5246674;28;20467;-76
2022/04/06 09:54:29;;;;;;;4.32;2.58;;;14.90;81.90;;;;;;5249430;28;20048;-73
2022/04/06 09:57:02;;;;;;;4.28;3.00;;;14.90;80.20;;;;;;5244491;28;20044;-77
2022/04/06 09:59:37;;;;;;;3.20;2.50;;;14.70;80.10;;;;;;5245862;28;20633;-76
2022/04/06 10:02:11;;;;;;;3.40;2.70;;;14.80;82.20;;;;;;5246139;28;20095;-75
2022/04/06 10:04:49;;;;;;;2.58;1.95;;;14.90;81.80;;;;;;5211966;28;20051;-76
2022/04/06 10:07:23;;;;;;;3.50;2.30;;;14.90;79.70;;;;;;5247969;28;20043;-77
2022/04/06 10:10:01;;;;;;;3.03;2.17;;;14.90;80.00;;;;;;5229315;28;20052;-75
2022/04/06 10:12:33;;;;;;;3.22;2.30;;;14.90;79.30;;;;;;5226905;28;20063;-76
2022/04/06 10:15:26;;;;;;;3.17;2.22;;;14.90;79.50;;;;;;5249481;28;20134;-75
2022/04/06 10:18:00;;;;;;;2.53;1.90;;;15.00;78.40;;;;;;5253499;28;20052;-74
2022/04/06 10:20:38;;;;;;;;;;;15.10;78.30;;;;;;5226235;28;20058;-76
2022/04/06 10:23:32;;;;;;;5.40;2.28;;;15.10;76.40;;;;;;5251764;28;19928;-76
2022/04/06 10:26:48;;;;;;;5.05;2.00;;;15.30;76.20;;;;;;5246536;28;20036;-75
2022/04/06 10:29:20;;;;;;;3.42;1.58;;;15.40;75.30;;;;;;5249023;28;20052;-75
2022/04/06 10:31:54;;;;;;;2.47;1.90;;;15.40;75.50;;;;;;5245716;28;20052;-76
2022/04/06 10:34:31;;;;;;;3.63;2.20;;;15.50;74.50;;;;;;5253512;28;20051;-76
2022/04/06 10:37:11;;;;;;;5.45;2.85;;;15.50;76.40;;;;;;5250434;28;20056;-76
2022/04/06 10:39:57;;;;;;;2.22;1.73;;;15.60;76.60;;;;;;5229090;28;20044;-75
2022/04/06 10:42:37;;;;;;;4.40;1.95;;;15.70;74.10;;;;;;5249839;28;20048;-75
2022/04/06 10:45:25;;;;;;;2.10;1.40;;;15.80;74.10;;;;;;5253308;28;20036;-74
2022/04/06 10:48:19;;;;;;;1.55;1.20;;;15.80;72.30;;;;;;5235255;28;20052;-76
2022/04/06 10:50:52;;;;;;;3.72;1.90;;;15.80;72.50;;;;;;5239802;28;20048;-75
2022/04/06 10:53:28;;;;;;;3.65;1.60;;;15.80;72.60;;;;;;5248354;28;20503;-76
2022/04/06 10:56:12;;;;;;;1.20;1.10;;;15.80;72.00;;;;;;5243779;28;21314;-76
2022/04/06 10:58:54;;;;;;;3.08;1.92;;;16.00;73.70;;;;;;5225395;28;20063;-76
2022/04/06 11:01:31;;;;;;;4.25;2.00;;;16.10;73.00;;;;;;5237007;28;20036;-77
2022/04/06 11:04:06;;;;;;;2.70;2.00;;;16.20;72.80;;;;;;5238732;28;20517;-77
2022/04/06 11:06:48;;;;;;;3.90;1.95;;;16.40;73.00;;;;;;5235453;28;20423;-75
2022/04/06 11:12:23;;;;;;;1.75;1.55;;;16.60;70.90;;;;;;5240318;28;20059;-75
2022/04/06 11:14:58;;;;;;;1.73;1.50;;;16.60;69.70;;;;;;5238283;28;20082;-74
2022/04/06 11:17:44;;;;;;;3.05;1.60;;;16.60;70.30;;;;;;5219250;28;20066;-77
2022/04/06 11:20:19;;;;;;;2.63;1.88;;;16.70;70.10;;;;;;5248447;28;20039;-76
2022/04/06 11:22:56;;;;;;;4.90;1.88;;;16.90;69.80;;;;;;5236089;28;20048;-75
2022/04/06 11:25:31;;;;;;;1.75;1.55;;;16.90;68.20;;;;;;5231487;28;20416;-76
2022/04/06 11:28:09;;;;;;;3.13;1.73;;;16.80;68.40;;;;;;5232036;28;20066;-76
2022/04/06 11:30:44;;;;;;;5.25;1.90;;;16.80;68.60;;;;;;5252903;28;20055;-77
2022/04/06 11:33:17;;;;;;;2.65;1.92;;;16.90;67.90;;;;;;5249102;28;20415;-77
2022/04/06 11:35:50;;;;;;;2.05;1.67;;;17.00;69.70;;;;;;5248095;28;20040;-77
2022/04/06 11:38:22;;;;;;;3.35;1.90;;;17.60;69.40;;;;;;5250119;28;20060;-76
2022/04/06 11:40:56;;;;;;;3.03;1.42;;;18.10;67.20;;;;;;5245317;28;20372;-76
2022/04/06 11:43:29;;;;;;;1.83;1.45;;;18.60;66.30;;;;;;5242468;28;20044;-75
2022/04/06 11:46:01;;;;;;;2.15;1.60;;;18.70;64.90;;;;;;5254695;28;20452;-76
2022/04/06 11:48:41;;;;;;;1.65;1.55;;;18.70;65.10;;;;;;5235720;28;20052;-77
2022/04/06 11:51:15;;;;;;;2.60;1.55;;;18.70;63.30;;;;;;5250597;28;20036;-76
2022/04/06 11:53:48;;;;;;;3.25;2.25;;;18.60;64.70;;;;;;5251501;28;20596;-76
2022/04/06 11:56:26;;;;;;;3.58;1.75;;;18.40;64.00;;;;;;5251170;28;20062;-75
2022/04/06 11:58:58;;;;;;;2.20;1.42;;;18.30;64.80;;;;;;5242185;28;20044;-78
2022/04/06 12:01:42;;;;;;;4.05;1.55;;;18.10;65.50;;;;;;5251529;28;20040;-75
2022/04/06 12:04:24;;;;;;;1.73;1.40;;;18.20;64.00;;;;;;5248258;28;20060;-77
2022/04/06 12:06:57;;;;;;;2.53;1.92;;;18.70;64.70;;;;;;5251523;28;20070;-76
2022/04/06 12:09:34;;;;;;;5.00;1.60;;;19.20;62.90;;;;;;5253679;28;20055;-76
2022/04/06 12:12:07;;;;;;;1.98;1.50;;;19.60;63.40;;;;;;5249899;28;20308;-76
2022/04/06 12:14:41;;;;;;;3.05;1.73;;;20.20;63.90;;;;;;5247972;28;20052;-76
2022/04/06 12:17:14;;;;;;;1.83;1.47;;;20.60;59.80;;;;;;4191570;28;10000364;-76
2022/04/06 12:19:46;;;;;;;3.78;2.40;;;20.70;58.40;;;;;;5245717;28;20054;-76
2022/04/06 12:22:24;;;;;;;3.53;1.42;;;20.10;58.60;;;;;;5226391;28;20047;-76
2022/04/06 12:24:57;;;;;;;2.78;1.33;;;19.50;60.10;;;;;;5230668;28;20158;-77
2022/04/06 12:27:30;;;;;;;2.90;1.60;;;19.50;60.30;;;;;;5248333;28;20055;-77
2022/04/06 12:30:10;;;;;;;2.97;1.83;;;19.70;60.30;;;;;;5231131;28;20048;-77
2022/04/06 12:32:44;;;;;;;3.97;2.35;;;19.80;59.90;;;;;;5251372;28;20050;-77
2022/04/06 12:35:18;;;;;;;3.90;1.60;;;20.10;60.20;;;;;;5220917;28;20052;-76
2022/04/06 12:37:51;;;;;;;3.17;1.88;;;20.50;58.50;;;;;;5234156;28;20066;-76
2022/04/06 12:40:24;;;;;;;8.95;1.30;;;21.10;57.10;;;;;;5232904;28;20060;-77
2022/04/06 12:42:56;;;;;;;1.58;1.27;;;20.90;56.00;;;;;;5240499;28;20040;-75
2022/04/06 12:45:46;;;;;;;3.05;2.35;;;20.80;55.90;;;;;;5240816;28;20054;-76
2022/04/06 12:48:19;;;;;;;2.30;2.00;;;20.30;55.40;;;;;;5238072;28;20051;-76
2022/04/06 12:51:22;;;;;;;3.05;1.15;;;20.20;58.50;;;;;;5237675;28;20044;-76
2022/04/06 12:53:54;;;;;;;1.60;1.20;;;20.60;57.10;;;;;;5229566;28;20048;-76
2022/04/06 12:56:26;;;;;;;1.45;1.13;;;21.30;56.60;;;;;;5232130;28;20059;-76
2022/04/06 12:59:10;;;;;;;4.38;2.35;;;21.70;55.40;;;;;;5233315;28;20044;-75
2022/04/06 13:01:46;;;;;;;1.60;1.23;;;21.60;52.40;;;;;;5234518;28;20455;-77
2022/04/06 13:04:19;;;;;;;1.73;1.25;;;21.50;53.90;;;;;;5225622;28;20055;-75
2022/04/06 13:06:51;;;;;;;3.45;0.98;;;21.60;54.00;;;;;;5250160;28;20407;-76
2022/04/06 13:09:24;;;;;;;3.85;1.55;;;21.10;53.90;;;;;;5244060;28;20052;-76
2022/04/06 13:11:56;;;;;;;4.95;2.65;;;20.70;55.00;;;;;;5243152;28;20044;-75
2022/04/06 13:14:30;;;;;;;2.15;1.30;;;20.20;55.90;;;;;;5254021;28;20043;-76
2022/04/06 13:17:04;;;;;;;1.92;1.27;;;20.60;56.30;;;;;;5249396;28;20944;-75
2022/04/06 13:19:37;;;;;;;4.80;1.98;;;20.90;55.10;;;;;;5248500;28;20039;-75
2022/04/06 13:22:09;;;;;;;3.47;1.83;;;20.80;55.50;;;;;;5243780;28;20935;-76
2022/04/06 13:24:43;;;;;;;1.63;0.95;;;21.00;54.80;;;;;;5242798;28;20078;-75
2022/04/06 13:27:16;;;;;;;3.15;1.20;;;21.70;53.90;;;;;;5238490;28;20040;-74
2022/04/06 13:29:49;;;;;;;3.13;1.10;;;22.20;53.40;;;;;;5242232;28;20048;-73
2022/04/06 13:32:21;;;;;;;1.98;1.20;;;22.80;53.00;;;;;;5235470;28;20514;-74
2022/04/06 13:34:54;;;;;;;3.97;1.55;;;23.30;51.10;;;;;;5237272;28;20044;-73
2022/04/06 13:37:27;;;;;;;3.00;1.95;;;23.50;50.80;;;;;;5247194;28;20063;-74
2022/04/06 13:40:00;;;;;;;1.25;0.90;;;23.80;50.40;;;;;;5211395;28;20052;-75
2022/04/06 13:42:32;;;;;;;1.20;0.80;;;23.80;49.30;;;;;;5235514;28;20048;-74